sensor_id;sensor_type;location;lat;lon;timestamp;pressure;altitude;pressure_sealevel;temperature;humidity
77250;BME280;66287;42.658;27.568;2022-12-29T00:02:25;101368.41;;;6.90;63.59
77250;BME280;66287;42.658;27.568;2022-12-29T00:04:50;101361.22;;;6.81;63.58
77250;BME280;66287;42.658;27.568;2022-12-29T00:07:16;101368.22;;;6.74;63.44
77250;BME280;66287;42.658;27.568;2022-12-29T00:09:42;101359.16;;;6.66;63.85
77250;BME280;66287;42.658;27.568;2022-12-29T00:12:07;101356.25;;;6.59;63.95
77250;BME280;66287;42.658;27.568;2022-12-29T00:14:32;101362.91;;;6.55;63.86
77250;BME280;66287;42.658;27.568;2022-12-29T00:17:16;101359.25;;;6.46;64.20
77250;BME280;66287;42.658;27.568;2022-12-29T00:19:41;101365.22;;;6.40;64.55
77250;BME280;66287;42.658;27.568;2022-12-29T00:22:25;101357.75;;;6.34;64.53
77250;BME280;66287;42.658;27.568;2022-12-29T00:25:10;101362.88;;;6.28;64.56
77250;BME280;66287;42.658;27.568;2022-12-29T00:27:54;101360.59;;;6.23;64.89
77250;BME280;66287;42.658;27.568;2022-12-29T00:30:39;101359.38;;;6.17;65.09
77250;BME280;66287;42.658;27.568;2022-12-29T00:33:25;101359.09;;;6.11;65.11
77250;BME280;66287;42.658;27.568;2022-12-29T00:36:15;101354.13;;;6.06;65.44
77250;BME280;66287;42.658;27.568;2022-12-29T00:38:43;101354.44;;;6.03;65.53
77250;BME280;66287;42.658;27.568;2022-12-29T00:41:29;101353.34;;;5.96;65.26
77250;BME280;66287;42.658;27.568;2022-12-29T00:44:13;101347.53;;;5.91;65.69
77250;BME280;66287;42.658;27.568;2022-12-29T00:46:40;101352.31;;;5.87;65.39
77250;BME280;66287;42.658;27.568;2022-12-29T00:49:06;101350.91;;;5.83;65.71
77250;BME280;66287;42.658;27.568;2022-12-29T00:51:50;101352.34;;;5.78;65.98
77250;BME280;66287;42.658;27.568;2022-12-29T00:54:16;101351.06;;;5.72;66.07
77250;BME280;66287;42.658;27.568;2022-12-29T00:56:41;101353.03;;;5.70;66.37
77250;BME280;66287;42.658;27.568;2022-12-29T00:59:08;101341.72;;;5.67;66.14
77250;BME280;66287;42.658;27.568;2022-12-29T01:01:34;101339.31;;;5.64;66.14
77250;BME280;66287;42.658;27.568;2022-12-29T01:03:59;101337.09;;;6.25;64.62
77250;BME280;66287;42.658;27.568;2022-12-29T01:06:25;101330.34;;;6.76;63.60
77250;BME280;66287;42.658;27.568;2022-12-29T01:08:51;101322.31;;;7.11;63.06
77250;BME280;66287;42.658;27.568;2022-12-29T01:11:36;101321.59;;;7.45;62.40
77250;BME280;66287;42.658;27.568;2022-12-29T01:14:02;101325.44;;;7.60;62.05
77250;BME280;66287;42.658;27.568;2022-12-29T01:16:27;101325.78;;;7.83;61.54
77250;BME280;66287;42.658;27.568;2022-12-29T01:18:53;101325.72;;;7.92;60.89
77250;BME280;66287;42.658;27.568;2022-12-29T01:21:20;101317.41;;;8.12;60.28
77250;BME280;66287;42.658;27.568;2022-12-29T01:23:45;101317.47;;;8.28;60.22
77250;BME280;66287;42.658;27.568;2022-12-29T01:26:11;101314.56;;;8.39;59.61
77250;BME280;66287;42.658;27.568;2022-12-29T02:38:27;101250.50;;;10.51;55.90
77250;BME280;66287;42.658;27.568;2022-12-29T02:41:06;101252.91;;;9.74;56.63
77250;BME280;66287;42.658;27.568;2022-12-29T02:46:13;101247.66;;;8.91;58.30
77250;BME280;66287;42.658;27.568;2022-12-29T02:48:46;101244.06;;;8.58;59.24
77250;BME280;66287;42.658;27.568;2022-12-29T02:51:15;101250.22;;;8.35;59.15
77250;BME280;66287;42.658;27.568;2022-12-29T02:53:43;101256.00;;;8.14;60.50
77250;BME280;66287;42.658;27.568;2022-12-29T02:56:28;101253.69;;;7.93;60.96
77250;BME280;66287;42.658;27.568;2022-12-29T02:58:53;101249.03;;;7.77;61.07
77250;BME280;66287;42.658;27.568;2022-12-29T03:11:35;101237.44;;;7.15;61.91
77250;BME280;66287;42.658;27.568;2022-12-29T03:20:06;101238.66;;;6.85;62.85
77250;BME280;66287;42.658;27.568;2022-12-29T03:22:34;101235.91;;;6.77;62.87
77250;BME280;66287;42.658;27.568;2022-12-29T03:25:10;101231.28;;;6.70;62.97
77250;BME280;66287;42.658;27.568;2022-12-29T03:27:40;101229.47;;;6.61;63.24
77250;BME280;66287;42.658;27.568;2022-12-29T03:30:06;101243.88;;;6.51;63.41
77250;BME280;66287;42.658;27.568;2022-12-29T03:32:43;101246.31;;;6.45;63.64
77250;BME280;66287;42.658;27.568;2022-12-29T03:35:13;101245.09;;;6.39;63.99
77250;BME280;66287;42.658;27.568;2022-12-29T03:37:43;101242.44;;;6.30;64.10
77250;BME280;66287;42.658;27.568;2022-12-29T03:40:11;101247.13;;;6.28;64.08
77250;BME280;66287;42.658;27.568;2022-12-29T03:42:37;101244.88;;;6.23;64.36
77250;BME280;66287;42.658;27.568;2022-12-29T03:45:04;101243.31;;;6.20;64.58
77250;BME280;66287;42.658;27.568;2022-12-29T03:47:31;101256.25;;;6.17;64.83
77250;BME280;66287;42.658;27.568;2022-12-29T03:49:57;101254.84;;;6.13;64.96
77250;BME280;66287;42.658;27.568;2022-12-29T03:52:22;101256.84;;;6.11;65.46
77250;BME280;66287;42.658;27.568;2022-12-29T03:54:50;101257.28;;;6.06;65.76
77250;BME280;66287;42.658;27.568;2022-12-29T03:57:15;101254.88;;;6.03;65.92
77250;BME280;66287;42.658;27.568;2022-12-29T03:59:54;101260.41;;;6.02;66.02
77250;BME280;66287;42.658;27.568;2022-12-29T04:02:20;101259.88;;;5.98;65.96
77250;BME280;66287;42.658;27.568;2022-12-29T04:04:45;101255.63;;;5.96;66.21
77250;BME280;66287;42.658;27.568;2022-12-29T04:07:11;101256.91;;;5.92;66.42
77250;BME280;66287;42.658;27.568;2022-12-29T04:09:36;101258.91;;;5.90;66.20
77250;BME280;66287;42.658;27.568;2022-12-29T04:12:02;101269.66;;;5.90;66.20
77250;BME280;66287;42.658;27.568;2022-12-29T04:14:28;101264.66;;;5.85;66.76
77250;BME280;66287;42.658;27.568;2022-12-29T04:16:54;101263.13;;;5.82;66.36
77250;BME280;66287;42.658;27.568;2022-12-29T04:19:20;101270.34;;;5.82;66.41
77250;BME280;66287;42.658;27.568;2022-12-29T04:21:47;101272.50;;;5.78;66.99
77250;BME280;66287;42.658;27.568;2022-12-29T04:24:12;101267.41;;;5.75;66.68
77250;BME280;66287;42.658;27.568;2022-12-29T04:26:40;101268.25;;;5.76;66.52
77250;BME280;66287;42.658;27.568;2022-12-29T04:29:24;101265.16;;;5.71;67.03
77250;BME280;66287;42.658;27.568;2022-12-29T04:32:12;101261.75;;;5.69;67.29
77250;BME280;66287;42.658;27.568;2022-12-29T04:34:43;101269.13;;;5.67;66.88
77250;BME280;66287;42.658;27.568;2022-12-29T04:37:09;101266.69;;;5.93;66.23
77250;BME280;66287;42.658;27.568;2022-12-29T04:39:35;101281.56;;;6.51;65.21
77250;BME280;66287;42.658;27.568;2022-12-29T04:42:01;101264.72;;;6.95;64.70
77250;BME280;66287;42.658;27.568;2022-12-29T04:44:27;101273.63;;;7.31;63.54
77250;BME280;66287;42.658;27.568;2022-12-29T04:46:52;101273.56;;;7.66;63.33
77250;BME280;66287;42.658;27.568;2022-12-29T04:49:41;101280.81;;;7.91;62.61
77250;BME280;66287;42.658;27.568;2022-12-29T04:52:25;101283.00;;;8.14;61.68
77250;BME280;66287;42.658;27.568;2022-12-29T04:54:54;101291.72;;;8.34;61.65
77250;BME280;66287;42.658;27.568;2022-12-29T04:57:21;101285.19;;;8.44;61.58
77250;BME280;66287;42.658;27.568;2022-12-29T04:59:51;101281.69;;;8.60;60.93
77250;BME280;66287;42.658;27.568;2022-12-29T05:02:17;101281.25;;;8.81;61.04
77250;BME280;66287;42.658;27.568;2022-12-29T05:04:43;101275.53;;;8.92;60.57
77250;BME280;66287;42.658;27.568;2022-12-29T05:07:09;101276.56;;;9.07;60.09
77250;BME280;66287;42.658;27.568;2022-12-29T05:09:36;101283.19;;;9.21;59.89
77250;BME280;66287;42.658;27.568;2022-12-29T05:12:01;101276.59;;;9.23;59.25
77250;BME280;66287;42.658;27.568;2022-12-29T05:14:28;101284.38;;;9.35;59.42
77250;BME280;66287;42.658;27.568;2022-12-29T05:16:54;101286.41;;;9.49;59.16
77250;BME280;66287;42.658;27.568;2022-12-29T05:19:19;101281.69;;;9.59;59.39
77250;BME280;66287;42.658;27.568;2022-12-29T05:21:44;101288.28;;;9.73;58.91
77250;BME280;66287;42.658;27.568;2022-12-29T05:24:10;101284.22;;;9.77;59.13
77250;BME280;66287;42.658;27.568;2022-12-29T05:26:36;101291.97;;;9.88;59.14
77250;BME280;66287;42.658;27.568;2022-12-29T05:29:07;101287.41;;;9.88;59.13
77250;BME280;66287;42.658;27.568;2022-12-29T05:31:32;101285.00;;;10.01;58.74
77250;BME280;66287;42.658;27.568;2022-12-29T05:33:58;101287.53;;;10.11;57.88
77250;BME280;66287;42.658;27.568;2022-12-29T05:36:25;101282.44;;;10.16;58.43
77250;BME280;66287;42.658;27.568;2022-12-29T05:38:54;101285.81;;;10.18;58.69
77250;BME280;66287;42.658;27.568;2022-12-29T05:41:20;101293.09;;;10.26;58.32
77250;BME280;66287;42.658;27.568;2022-12-29T05:44:09;101289.00;;;10.38;57.41
77250;BME280;66287;42.658;27.568;2022-12-29T05:46:40;101291.31;;;10.49;57.80
77250;BME280;66287;42.658;27.568;2022-12-29T05:49:14;101289.22;;;10.59;57.15
77250;BME280;66287;42.658;27.568;2022-12-29T05:51:58;101298.22;;;9.88;59.46
77250;BME280;66287;42.658;27.568;2022-12-29T05:54:23;101299.59;;;9.52;59.90
77250;BME280;66287;42.658;27.568;2022-12-29T05:56:49;101294.84;;;9.21;60.65
77250;BME280;66287;42.658;27.568;2022-12-29T05:59:15;101298.00;;;9.01;61.02
77250;BME280;66287;42.658;27.568;2022-12-29T06:01:41;101301.38;;;8.86;61.61
77250;BME280;66287;42.658;27.568;2022-12-29T06:04:06;101300.53;;;8.78;62.05
77250;BME280;66287;42.658;27.568;2022-12-29T06:06:32;101300.69;;;8.76;62.95
77250;BME280;66287;42.658;27.568;2022-12-29T06:08:57;101316.53;;;8.79;63.08
77250;BME280;66287;42.658;27.568;2022-12-29T06:11:23;101316.09;;;8.92;63.12
77250;BME280;66287;42.658;27.568;2022-12-29T06:13:52;101308.88;;;9.17;62.89
77250;BME280;66287;42.658;27.568;2022-12-29T06:16:18;101307.06;;;9.58;61.67
77250;BME280;66287;42.658;27.568;2022-12-29T06:18:44;101302.63;;;9.89;60.75
77250;BME280;66287;42.658;27.568;2022-12-29T06:21:09;101298.84;;;10.15;60.66
77250;BME280;66287;42.658;27.568;2022-12-29T06:23:35;101301.53;;;10.39;59.71
77250;BME280;66287;42.658;27.568;2022-12-29T06:26:00;101297.34;;;10.59;59.61
77250;BME280;66287;42.658;27.568;2022-12-29T06:28:26;101296.41;;;10.83;59.06
77250;BME280;66287;42.658;27.568;2022-12-29T06:30:51;101300.16;;;11.05;59.13
77250;BME280;66287;42.658;27.568;2022-12-29T06:33:17;101304.59;;;11.29;58.36
77250;BME280;66287;42.658;27.568;2022-12-29T06:35:44;101297.84;;;11.48;57.99
77250;BME280;66287;42.658;27.568;2022-12-29T06:38:11;101301.38;;;11.71;57.48
77250;BME280;66287;42.658;27.568;2022-12-29T06:40:36;101303.59;;;11.90;57.20
77250;BME280;66287;42.658;27.568;2022-12-29T06:43:24;101304.41;;;12.14;57.01
77250;BME280;66287;42.658;27.568;2022-12-29T06:46:00;101310.97;;;12.34;56.98
77250;BME280;66287;42.658;27.568;2022-12-29T06:48:25;101316.00;;;12.66;56.74
77250;BME280;66287;42.658;27.568;2022-12-29T06:50:51;101314.19;;;12.88;55.74
77250;BME280;66287;42.658;27.568;2022-12-29T06:53:16;101305.66;;;13.27;55.09
77250;BME280;66287;42.658;27.568;2022-12-29T06:55:42;101311.22;;;13.62;53.89
77250;BME280;66287;42.658;27.568;2022-12-29T06:58:07;101308.63;;;13.96;52.83
77250;BME280;66287;42.658;27.568;2022-12-29T07:00:33;101303.78;;;14.26;52.38
77250;BME280;66287;42.658;27.568;2022-12-29T07:02:58;101309.25;;;14.61;51.63
77250;BME280;66287;42.658;27.568;2022-12-29T07:05:24;101305.84;;;14.93;49.96
77250;BME280;66287;42.658;27.568;2022-12-29T07:07:50;101313.88;;;15.21;49.21
77250;BME280;66287;42.658;27.568;2022-12-29T07:10:16;101310.84;;;15.57;48.15
77250;BME280;66287;42.658;27.568;2022-12-29T07:12:41;101315.72;;;15.75;47.17
77250;BME280;66287;42.658;27.568;2022-12-29T07:15:07;101318.00;;;16.04;46.06
77250;BME280;66287;42.658;27.568;2022-12-29T07:17:32;101319.88;;;16.24;46.00
77250;BME280;66287;42.658;27.568;2022-12-29T07:19:58;101314.19;;;16.25;46.04
77250;BME280;66287;42.658;27.568;2022-12-29T07:22:23;101317.28;;;16.55;44.71
77250;BME280;66287;42.658;27.568;2022-12-29T07:24:48;101311.63;;;16.50;45.26
77250;BME280;66287;42.658;27.568;2022-12-29T07:27:14;101312.00;;;16.60;45.29
77250;BME280;66287;42.658;27.568;2022-12-29T07:29:39;101308.63;;;16.71;44.63
77250;BME280;66287;42.658;27.568;2022-12-29T07:32:05;101306.47;;;16.80;44.35
77250;BME280;66287;42.658;27.568;2022-12-29T07:34:30;101311.88;;;17.00;44.11
77250;BME280;66287;42.658;27.568;2022-12-29T07:36:55;101316.03;;;17.15;43.78
77250;BME280;66287;42.658;27.568;2022-12-29T07:39:21;101321.00;;;17.32;43.35
77250;BME280;66287;42.658;27.568;2022-12-29T07:41:46;101310.94;;;17.57;42.70
77250;BME280;66287;42.658;27.568;2022-12-29T07:44:16;101311.69;;;17.71;42.13
77250;BME280;66287;42.658;27.568;2022-12-29T07:47:00;101314.72;;;17.87;41.16
77250;BME280;66287;42.658;27.568;2022-12-29T07:49:25;101319.19;;;18.07;40.70
77250;BME280;66287;42.658;27.568;2022-12-29T07:51:51;101317.03;;;18.34;40.45
77250;BME280;66287;42.658;27.568;2022-12-29T07:54:16;101316.22;;;18.51;40.23
77250;BME280;66287;42.658;27.568;2022-12-29T07:56:43;101307.16;;;18.69;40.26
77250;BME280;66287;42.658;27.568;2022-12-29T07:59:09;101307.16;;;18.87;39.74
77250;BME280;66287;42.658;27.568;2022-12-29T08:01:34;101303.53;;;19.05;39.33
77250;BME280;66287;42.658;27.568;2022-12-29T08:04:00;101308.59;;;19.20;38.68
77250;BME280;66287;42.658;27.568;2022-12-29T08:06:25;101303.56;;;19.35;38.33
77250;BME280;66287;42.658;27.568;2022-12-29T08:08:50;101309.69;;;19.49;38.24
77250;BME280;66287;42.658;27.568;2022-12-29T08:11:16;101312.00;;;19.64;38.11
77250;BME280;66287;42.658;27.568;2022-12-29T08:13:41;101319.59;;;19.80;37.77
77250;BME280;66287;42.658;27.568;2022-12-29T08:16:06;101308.63;;;19.91;37.26
77250;BME280;66287;42.658;27.568;2022-12-29T08:18:32;101308.84;;;20.02;36.92
77250;BME280;66287;42.658;27.568;2022-12-29T08:21:01;101313.53;;;20.24;36.58
77250;BME280;66287;42.658;27.568;2022-12-29T08:23:26;101305.75;;;20.33;36.42
77250;BME280;66287;42.658;27.568;2022-12-29T08:25:58;101310.91;;;20.41;36.31
77250;BME280;66287;42.658;27.568;2022-12-29T08:28:24;101313.78;;;20.58;35.67
77250;BME280;66287;42.658;27.568;2022-12-29T08:30:49;101312.03;;;20.80;35.04
77250;BME280;66287;42.658;27.568;2022-12-29T08:33:15;101315.03;;;20.90;34.59
77250;BME280;66287;42.658;27.568;2022-12-29T08:35:40;101315.38;;;20.94;34.56
77250;BME280;66287;42.658;27.568;2022-12-29T08:38:06;101314.06;;;20.96;34.67
77250;BME280;66287;42.658;27.568;2022-12-29T08:40:31;101314.84;;;21.09;34.57
77250;BME280;66287;42.658;27.568;2022-12-29T08:42:56;101317.22;;;21.17;34.39
77250;BME280;66287;42.658;27.568;2022-12-29T08:45:22;101310.09;;;21.33;34.25
77250;BME280;66287;42.658;27.568;2022-12-29T08:47:47;101312.75;;;21.56;33.73
77250;BME280;66287;42.658;27.568;2022-12-29T08:50:13;101313.50;;;21.68;33.27
77250;BME280;66287;42.658;27.568;2022-12-29T08:52:38;101297.78;;;21.69;33.25
77250;BME280;66287;42.658;27.568;2022-12-29T08:55:03;101299.31;;;21.93;32.59
77250;BME280;66287;42.658;27.568;2022-12-29T08:57:29;101302.44;;;22.13;32.35
77250;BME280;66287;42.658;27.568;2022-12-29T09:00:21;101293.69;;;22.21;32.00
77250;BME280;66287;42.658;27.568;2022-12-29T09:02:47;101295.56;;;22.16;32.02
77250;BME280;66287;42.658;27.568;2022-12-29T09:05:12;101282.81;;;22.31;31.63
77250;BME280;66287;42.658;27.568;2022-12-29T09:07:37;101286.75;;;22.36;31.48
77250;BME280;66287;42.658;27.568;2022-12-29T09:10:03;101280.50;;;22.45;31.47
77250;BME280;66287;42.658;27.568;2022-12-29T09:12:29;101278.84;;;22.66;31.50
77250;BME280;66287;42.658;27.568;2022-12-29T09:14:54;101280.84;;;22.49;31.36
77250;BME280;66287;42.658;27.568;2022-12-29T09:17:19;101285.56;;;22.70;30.92
77250;BME280;66287;42.658;27.568;2022-12-29T09:20:04;101271.66;;;22.65;31.04
77250;BME280;66287;42.658;27.568;2022-12-29T09:22:29;101271.16;;;22.68;31.37
77250;BME280;66287;42.658;27.568;2022-12-29T09:24:54;101271.75;;;22.92;31.13
77250;BME280;66287;42.658;27.568;2022-12-29T09:27:20;101271.28;;;22.78;31.43
77250;BME280;66287;42.658;27.568;2022-12-29T09:29:45;101264.75;;;22.84;31.00
77250;BME280;66287;42.658;27.568;2022-12-29T09:32:11;101272.59;;;22.92;30.93
77250;BME280;66287;42.658;27.568;2022-12-29T09:34:36;101269.16;;;23.07;30.63
77250;BME280;66287;42.658;27.568;2022-12-29T09:37:01;101266.13;;;23.09;30.24
77250;BME280;66287;42.658;27.568;2022-12-29T09:39:27;101262.22;;;23.05;30.34
77250;BME280;66287;42.658;27.568;2022-12-29T09:41:57;101257.72;;;22.98;30.67
77250;BME280;66287;42.658;27.568;2022-12-29T09:44:39;101258.66;;;23.09;30.73
77250;BME280;66287;42.658;27.568;2022-12-29T09:47:10;101256.81;;;23.15;30.90
77250;BME280;66287;42.658;27.568;2022-12-29T09:49:40;101252.47;;;23.24;30.90
77250;BME280;66287;42.658;27.568;2022-12-29T09:52:11;101262.53;;;23.35;30.64
77250;BME280;66287;42.658;27.568;2022-12-29T09:54:56;101251.75;;;23.33;30.97
77250;BME280;66287;42.658;27.568;2022-12-29T10:00:03;101244.63;;;23.43;30.49
77250;BME280;66287;42.658;27.568;2022-12-29T10:02:42;101250.16;;;23.43;30.44
77250;BME280;66287;42.658;27.568;2022-12-29T10:05:28;101241.28;;;23.41;30.53
77250;BME280;66287;42.658;27.568;2022-12-29T10:08:12;101242.59;;;23.33;30.92
77250;BME280;66287;42.658;27.568;2022-12-29T10:10:43;101241.53;;;23.39;30.25
77250;BME280;66287;42.658;27.568;2022-12-29T10:13:26;101229.00;;;23.58;30.40
77250;BME280;66287;42.658;27.568;2022-12-29T10:21:17;101218.06;;;23.74;30.06
77250;BME280;66287;42.658;27.568;2022-12-29T10:23:47;101214.22;;;23.80;30.23
77250;BME280;66287;42.658;27.568;2022-12-29T10:26:16;101215.56;;;23.72;29.54
77250;BME280;66287;42.658;27.568;2022-12-29T10:28:43;101210.44;;;23.91;28.99
77250;BME280;66287;42.658;27.568;2022-12-29T10:31:24;101199.63;;;23.89;29.80
77250;BME280;66287;42.658;27.568;2022-12-29T10:33:55;101203.22;;;23.90;29.36
77250;BME280;66287;42.658;27.568;2022-12-29T10:36:41;101204.03;;;23.85;29.92
77250;BME280;66287;42.658;27.568;2022-12-29T10:41:45;101191.16;;;24.06;30.10
77250;BME280;66287;42.658;27.568;2022-12-29T10:44:13;101193.06;;;24.05;29.73
77250;BME280;66287;42.658;27.568;2022-12-29T10:46:39;101193.91;;;24.06;29.77
77250;BME280;66287;42.658;27.568;2022-12-29T10:49:06;101186.22;;;24.13;29.96
77250;BME280;66287;42.658;27.568;2022-12-29T10:51:36;101185.84;;;23.99;30.00
77250;BME280;66287;42.658;27.568;2022-12-29T10:54:10;101186.59;;;23.85;29.68
77250;BME280;66287;42.658;27.568;2022-12-29T10:56:46;101186.00;;;23.83;29.87
77250;BME280;66287;42.658;27.568;2022-12-29T10:59:26;101176.34;;;23.85;29.98
77250;BME280;66287;42.658;27.568;2022-12-29T11:07:19;101168.81;;;23.81;30.49
77250;BME280;66287;42.658;27.568;2022-12-29T11:09:45;101165.25;;;23.85;30.13
77250;BME280;66287;42.658;27.568;2022-12-29T11:17:52;101163.81;;;23.73;30.03
77250;BME280;66287;42.658;27.568;2022-12-29T11:20:37;101172.41;;;23.76;29.91
77250;BME280;66287;42.658;27.568;2022-12-29T11:23:03;101165.75;;;23.72;30.05
77250;BME280;66287;42.658;27.568;2022-12-29T11:25:29;101158.84;;;23.80;30.01
77250;BME280;66287;42.658;27.568;2022-12-29T11:30:30;101154.72;;;23.82;29.61
77250;BME280;66287;42.658;27.568;2022-12-29T11:32:56;101158.59;;;23.76;29.78
77250;BME280;66287;42.658;27.568;2022-12-29T11:35:29;101158.31;;;23.83;29.77
77250;BME280;66287;42.658;27.568;2022-12-29T11:37:55;101147.25;;;23.78;30.14
77250;BME280;66287;42.658;27.568;2022-12-29T11:40:22;101151.94;;;23.82;29.91
77250;BME280;66287;42.658;27.568;2022-12-29T11:42:59;101147.56;;;23.86;29.85
77250;BME280;66287;42.658;27.568;2022-12-29T11:45:36;101146.19;;;23.89;29.84
77250;BME280;66287;42.658;27.568;2022-12-29T11:48:18;101135.03;;;23.79;29.39
77250;BME280;66287;42.658;27.568;2022-12-29T11:50:48;101136.72;;;23.80;29.78
77250;BME280;66287;42.658;27.568;2022-12-29T11:53:16;101133.44;;;23.88;29.80
77250;BME280;66287;42.658;27.568;2022-12-29T11:58:37;101132.59;;;23.87;29.40
77250;BME280;66287;42.658;27.568;2022-12-29T12:01:16;101133.97;;;23.85;29.58
77250;BME280;66287;42.658;27.568;2022-12-29T12:03:50;101128.22;;;23.91;29.57
77250;BME280;66287;42.658;27.568;2022-12-29T12:06:19;101126.84;;;23.94;30.07
77250;BME280;66287;42.658;27.568;2022-12-29T12:08:56;101129.56;;;23.89;29.59
77250;BME280;66287;42.658;27.568;2022-12-29T12:11:27;101130.41;;;23.89;29.87
77250;BME280;66287;42.658;27.568;2022-12-29T12:14:02;101127.59;;;23.84;29.78
77250;BME280;66287;42.658;27.568;2022-12-29T12:16:50;101130.63;;;23.83;30.14
77250;BME280;66287;42.658;27.568;2022-12-29T12:19:28;101121.22;;;23.84;29.84
77250;BME280;66287;42.658;27.568;2022-12-29T12:22:04;101112.72;;;23.95;29.96
77250;BME280;66287;42.658;27.568;2022-12-29T12:27:02;101114.59;;;23.85;30.27
77250;BME280;66287;42.658;27.568;2022-12-29T12:29:38;101125.41;;;23.86;30.30
77250;BME280;66287;42.658;27.568;2022-12-29T12:32:17;101119.09;;;23.96;29.64
77250;BME280;66287;42.658;27.568;2022-12-29T12:34:45;101122.63;;;23.86;30.13
77250;BME280;66287;42.658;27.568;2022-12-29T12:37:26;101115.16;;;23.87;30.13
77250;BME280;66287;42.658;27.568;2022-12-29T12:40:05;101112.09;;;23.83;29.65
77250;BME280;66287;42.658;27.568;2022-12-29T12:47:53;101119.59;;;23.88;29.78
77250;BME280;66287;42.658;27.568;2022-12-29T12:50:26;101123.72;;;23.85;30.08
77250;BME280;66287;42.658;27.568;2022-12-29T12:53:03;101122.59;;;23.81;29.82
77250;BME280;66287;42.658;27.568;2022-12-29T13:08:55;101131.66;;;23.66;29.83
77250;BME280;66287;42.658;27.568;2022-12-29T13:11:26;101128.72;;;23.46;29.87
77250;BME280;66287;42.658;27.568;2022-12-29T13:29:17;101121.97;;;22.73;30.05
77250;BME280;66287;42.658;27.568;2022-12-29T13:36:54;101117.69;;;22.33;30.91
77250;BME280;66287;42.658;27.568;2022-12-29T13:39:26;101112.41;;;22.10;30.74
77250;BME280;66287;42.658;27.568;2022-12-29T13:41:53;101104.91;;;22.06;31.22
77250;BME280;66287;42.658;27.568;2022-12-29T13:44:23;101107.75;;;21.94;31.38
77250;BME280;66287;42.658;27.568;2022-12-29T13:46:50;101099.84;;;21.81;31.52
77250;BME280;66287;42.658;27.568;2022-12-29T13:49:18;101108.75;;;21.66;31.86
77250;BME280;66287;42.658;27.568;2022-12-29T13:51:51;101095.66;;;21.56;31.68
77250;BME280;66287;42.658;27.568;2022-12-29T13:59:57;101099.84;;;20.92;32.84
77250;BME280;66287;42.658;27.568;2022-12-29T14:02:42;101100.97;;;20.79;32.93
77250;BME280;66287;42.658;27.568;2022-12-29T14:07:45;101098.25;;;20.51;33.37
77250;BME280;66287;42.658;27.568;2022-12-29T14:13:09;101106.88;;;20.14;33.61
77250;BME280;66287;42.658;27.568;2022-12-29T14:15:39;101105.69;;;20.10;33.77
77250;BME280;66287;42.658;27.568;2022-12-29T14:18:16;101106.81;;;19.86;34.07
77250;BME280;66287;42.658;27.568;2022-12-29T14:20:53;101106.00;;;19.74;34.74
77250;BME280;66287;42.658;27.568;2022-12-29T14:28:40;101117.00;;;18.85;35.98
77250;BME280;66287;42.658;27.568;2022-12-29T14:33:40;101119.38;;;18.52;36.58
77250;BME280;66287;42.658;27.568;2022-12-29T14:36:19;101122.41;;;18.32;36.99
77250;BME280;66287;42.658;27.568;2022-12-29T14:38:45;101133.78;;;18.17;40.36
77250;BME280;66287;42.658;27.568;2022-12-29T14:43:58;101135.72;;;18.47;38.74
77250;BME280;66287;42.658;27.568;2022-12-29T14:46:25;101129.53;;;18.51;38.69
77250;BME280;66287;42.658;27.568;2022-12-29T14:48:54;101127.63;;;18.52;38.73
77250;BME280;66287;42.658;27.568;2022-12-29T14:51:34;101135.72;;;18.47;39.09
77250;BME280;66287;42.658;27.568;2022-12-29T14:54:17;101127.78;;;18.39;39.32
77250;BME280;66287;42.658;27.568;2022-12-29T14:56:46;101132.94;;;18.35;39.42
77250;BME280;66287;42.658;27.568;2022-12-29T14:59:12;101125.44;;;18.24;39.75
77250;BME280;66287;42.658;27.568;2022-12-29T15:01:47;101123.28;;;18.14;39.68
77250;BME280;66287;42.658;27.568;2022-12-29T15:04:17;101119.69;;;17.96;40.37
77250;BME280;66287;42.658;27.568;2022-12-29T15:06:43;101120.66;;;17.83;40.63
77250;BME280;66287;42.658;27.568;2022-12-29T15:09:23;101122.34;;;17.66;41.03
77250;BME280;66287;42.658;27.568;2022-12-29T15:11:51;101126.09;;;17.46;41.67
77250;BME280;66287;42.658;27.568;2022-12-29T15:14:52;101125.81;;;17.30;42.07
77250;BME280;66287;42.658;27.568;2022-12-29T15:17:10;101128.22;;;17.19;42.14
77250;BME280;66287;42.658;27.568;2022-12-29T15:19:47;101132.19;;;16.99;42.53
77250;BME280;66287;42.658;27.568;2022-12-29T15:22:12;101135.69;;;16.81;43.15
77250;BME280;66287;42.658;27.568;2022-12-29T15:24:40;101127.78;;;16.66;43.19
77250;BME280;66287;42.658;27.568;2022-12-29T15:27:06;101126.16;;;16.52;43.74
77250;BME280;66287;42.658;27.568;2022-12-29T15:31:58;101131.13;;;16.24;44.22
77250;BME280;66287;42.658;27.568;2022-12-29T15:34:25;101138.13;;;16.13;44.22
77250;BME280;66287;42.658;27.568;2022-12-29T15:36:54;101131.47;;;15.96;44.72
77250;BME280;66287;42.658;27.568;2022-12-29T15:39:20;101138.47;;;15.78;44.63
77250;BME280;66287;42.658;27.568;2022-12-29T15:47:01;101142.88;;;15.46;45.33
77250;BME280;66287;42.658;27.568;2022-12-29T15:49:27;101139.75;;;15.30;45.83
77250;BME280;66287;42.658;27.568;2022-12-29T15:51:53;101145.44;;;15.15;45.87
77250;BME280;66287;42.658;27.568;2022-12-29T15:54:19;101138.06;;;15.09;46.45
77250;BME280;66287;42.658;27.568;2022-12-29T15:56:45;101147.94;;;14.97;46.46
77250;BME280;66287;42.658;27.568;2022-12-29T15:59:32;101140.34;;;14.86;46.70
77250;BME280;66287;42.658;27.568;2022-12-29T16:01:57;101147.28;;;14.81;46.28
77250;BME280;66287;42.658;27.568;2022-12-29T16:04:23;101150.00;;;14.68;46.52